Time;durP1;ratioP1;P1;durP2;ratioP2;P2;SDS_P1;SDS_P2;PMS_P1;PMS_P2;Temp;Humidity;BMP_temperature;BMP_pressure;BME280_temperature;BME280_humidity;BME280_pressure;Samples;Min_cycle;Max_cycle;Signal;HPM_P1;HPM_P2
2023/06/14 00:01:51;;;;;;;6.00;4.80;;;;;;;;;;5051036;28;20213;-81
2023/06/14 00:04:20;;;;;;;5.03;4.33;;;;;;;;;;5050254;28;20236;-81
2023/06/14 00:06:48;;;;;;;8.47;4.20;;;;;;;;;;5050993;28;20246;-81
2023/06/14 00:09:17;;;;;;;7.23;4.30;;;;;;;;;;5050165;28;20602;-81
2023/06/14 00:11:44;;;;;;;5.67;4.60;;;;;;;;;;5050759;28;20252;-81
2023/06/14 00:14:12;;;;;;;4.10;3.70;;;;;;;;;;5050350;28;20238;-81
2023/06/14 00:16:42;;;;;;;6.77;5.00;;;;;;;;;;5058808;28;20569;-81
2023/06/14 00:19:10;;;;;;;8.53;4.27;;;;;;;;;;5050052;28;20317;-81
2023/06/14 00:21:37;;;;;;;5.93;4.10;;;;;;;;;;5054180;28;20255;-80
2023/06/14 00:24:05;;;;;;;6.17;4.03;;;;;;;;;;5050292;28;20229;-81
2023/06/14 00:26:32;;;;;;;6.07;3.87;;;;;;;;;;5050801;28;20206;-81
2023/06/14 00:28:59;;;;;;;4.13;3.83;;;;;;;;;;5046230;28;20571;-81
2023/06/14 00:31:28;;;;;;;4.27;3.87;;;;;;;;;;5050339;28;20691;-81
2023/06/14 00:33:55;;;;;;;10.40;3.70;;;;;;;;;;5052101;28;20226;-81
2023/06/14 00:36:22;;;;;;;4.43;4.03;;;;;;;;;;5067346;28;20217;-81
2023/06/14 00:38:49;;;;;;;3.73;3.43;;;;;;;;;;5050242;28;20237;-81
2023/06/14 00:41:16;;;;;;;4.40;3.80;;;;;;;;;;5050750;28;20639;-81
2023/06/14 00:43:43;;;;;;;4.90;4.47;;;;;;;;;;5050203;28;20566;-80
2023/06/14 00:46:10;;;;;;;4.80;4.30;;;;;;;;;;5049954;28;20210;-81
2023/06/14 00:48:40;;;;;;;5.90;3.77;;;;;;;;;;5045392;28;20230;-81
2023/06/14 00:51:07;;;;;;;5.07;4.00;;;;;;;;;;5062321;28;20226;-81
2023/06/14 00:53:35;;;;;;;4.90;4.10;;;;;;;;;;5053952;28;20237;-81
2023/06/14 00:56:02;;;;;;;5.70;4.10;;;;;;;;;;5053909;28;20280;-81
2023/06/14 00:58:29;;;;;;;5.50;4.57;;;;;;;;;;5061970;28;20238;-81
2023/06/14 01:00:57;;;;;;;4.77;4.27;;;;;;;;;;5049466;28;20303;-81
2023/06/14 01:03:25;;;;;;;4.50;4.00;;;;;;;;;;5049085;28;20644;-81
2023/06/14 01:06:02;;;;;;;5.57;4.30;;;;;;;;;;5051232;28;20236;-81
2023/06/14 01:08:33;;;;;;;3.87;3.57;;;;;;;;;;5060583;28;20283;-82
2023/06/14 01:11:04;;;;;;;4.83;4.33;;;;;;;;;;5053612;28;20234;-82
2023/06/14 01:13:34;;;;;;;4.73;4.33;;;;;;;;;;5055313;28;20714;-82
2023/06/14 01:16:02;;;;;;;5.10;4.37;;;;;;;;;;5061765;28;20230;-82
2023/06/14 01:18:29;;;;;;;5.00;4.50;;;;;;;;;;5056457;28;20640;-82
2023/06/14 01:20:58;;;;;;;5.57;4.60;;;;;;;;;;5066535;28;20234;-82
2023/06/14 01:23:32;;;;;;;5.17;3.97;;;;;;;;;;5061591;28;20629;-82
2023/06/14 01:26:03;;;;;;;4.57;4.17;;;;;;;;;;5048871;28;20232;-82
2023/06/14 01:28:31;;;;;;;6.27;4.63;;;;;;;;;;5053381;28;20277;-82
2023/06/14 01:31:03;;;;;;;9.13;4.60;;;;;;;;;;5052937;28;20234;-82
2023/06/14 01:33:30;;;;;;;6.57;4.20;;;;;;;;;;5055224;28;20231;-82
2023/06/14 01:35:57;;;;;;;7.70;4.50;;;;;;;;;;5052980;28;20233;-82
2023/06/14 01:38:27;;;;;;;5.63;4.70;;;;;;;;;;5053590;28;20274;-82
2023/06/14 01:40:55;;;;;;;6.77;5.03;;;;;;;;;;5053232;28;20713;-82
2023/06/14 01:43:22;;;;;;;5.20;4.70;;;;;;;;;;5053444;28;20209;-82
2023/06/14 01:45:50;;;;;;;9.47;4.90;;;;;;;;;;5053184;28;20229;-82
2023/06/14 01:48:17;;;;;;;6.20;4.60;;;;;;;;;;5053062;28;20217;-82
2023/06/14 01:50:44;;;;;;;5.73;4.67;;;;;;;;;;5061032;28;20241;-82
2023/06/14 01:53:11;;;;;;;8.27;4.53;;;;;;;;;;5061467;28;20541;-82
2023/06/14 01:55:43;;;;;;;5.73;4.73;;;;;;;;;;5052743;28;20238;-82
2023/06/14 01:58:10;;;;;;;5.67;4.23;;;;;;;;;;5053048;28;20657;-82
2023/06/14 02:00:37;;;;;;;6.47;4.83;;;;;;;;;;5060168;28;20234;-82
2023/06/14 02:03:04;;;;;;;6.43;5.00;;;;;;;;;;5052569;28;20214;-82
2023/06/14 02:05:32;;;;;;;5.37;4.60;;;;;;;;;;5052276;28;20312;-82
2023/06/14 02:07:59;;;;;;;5.97;4.77;;;;;;;;;;5056453;28;20202;-82
2023/06/14 02:10:26;;;;;;;5.10;4.70;;;;;;;;;;5052399;28;20237;-82
2023/06/14 02:12:54;;;;;;;6.73;4.90;;;;;;;;;;5061099;28;20226;-82
2023/06/14 02:15:21;;;;;;;5.60;4.60;;;;;;;;;;5056418;28;20230;-82
2023/06/14 02:17:49;;;;;;;5.83;4.97;;;;;;;;;;5053285;28;20210;-81
2023/06/14 02:20:16;;;;;;;5.20;4.77;;;;;;;;;;5052300;28;20640;-82
2023/06/14 02:22:43;;;;;;;5.47;5.03;;;;;;;;;;5052634;28;20210;-82
2023/06/14 02:25:10;;;;;;;5.37;4.87;;;;;;;;;;5052356;28;20240;-82
2023/06/14 02:27:37;;;;;;;6.40;5.17;;;;;;;;;;5053050;28;20582;-82
2023/06/14 02:30:07;;;;;;;5.43;4.63;;;;;;;;;;5052165;28;20636;-82
2023/06/14 02:32:35;;;;;;;5.50;4.40;;;;;;;;;;5055539;28;20225;-82
2023/06/14 02:35:02;;;;;;;5.77;4.80;;;;;;;;;;5063853;28;20229;-82
2023/06/14 02:37:29;;;;;;;4.90;4.50;;;;;;;;;;5055977;28;20217;-82
2023/06/14 02:39:57;;;;;;;6.23;4.73;;;;;;;;;;5065984;28;20230;-82
2023/06/14 02:42:24;;;;;;;7.13;4.97;;;;;;;;;;5052107;28;20214;-82
2023/06/14 02:44:51;;;;;;;6.50;5.57;;;;;;;;;;5057381;28;20720;-82
2023/06/14 02:47:20;;;;;;;5.10;4.60;;;;;;;;;;5055638;28;20629;-82
2023/06/14 02:49:47;;;;;;;6.23;5.40;;;;;;;;;;5066732;28;20233;-82
2023/06/14 02:52:14;;;;;;;6.17;4.80;;;;;;;;;;5052671;28;20297;-82
2023/06/14 02:54:41;;;;;;;5.70;5.20;;;;;;;;;;5059478;28;20715;-82
2023/06/14 02:57:08;;;;;;;6.23;4.90;;;;;;;;;;5060147;28;20209;-82
2023/06/14 02:59:36;;;;;;;5.57;4.70;;;;;;;;;;5054716;28;20316;-82
2023/06/14 03:02:03;;;;;;;9.03;5.53;;;;;;;;;;5063876;28;20245;-82
2023/06/14 03:04:37;;;;;;;8.90;4.60;;;;;;;;;;5060852;28;20236;-82
2023/06/14 03:07:08;;;;;;;7.37;5.20;;;;;;;;;;5059148;28;20699;-82
2023/06/14 03:09:35;;;;;;;8.77;4.97;;;;;;;;;;5063336;28;20233;-82
2023/06/14 03:12:02;;;;;;;9.20;4.83;;;;;;;;;;5055809;28;20209;-82
2023/06/14 03:14:30;;;;;;;5.57;4.53;;;;;;;;;;5051088;28;20328;-82
2023/06/14 03:16:57;;;;;;;5.33;4.80;;;;;;;;;;5057672;28;20296;-82
2023/06/14 03:19:25;;;;;;;5.50;4.97;;;;;;;;;;5054833;28;20238;-82
2023/06/14 03:21:56;;;;;;;5.00;4.60;;;;;;;;;;5051641;28;20309;-82
2023/06/14 03:24:24;;;;;;;5.27;4.63;;;;;;;;;;5050945;28;20226;-82
2023/06/14 03:26:51;;;;;;;5.33;4.83;;;;;;;;;;5051637;28;20240;-82
2023/06/14 03:29:18;;;;;;;5.93;5.10;;;;;;;;;;5050717;28;20230;-82
2023/06/14 03:31:57;;;;;;;6.80;5.67;;;;;;;;;;5051484;28;20214;-82
2023/06/14 03:34:25;;;;;;;7.33;5.43;;;;;;;;;;5050622;28;20321;-82
2023/06/14 03:36:53;;;;;;;9.40;5.03;;;;;;;;;;5062824;28;20596;-82
2023/06/14 03:39:20;;;;;;;6.80;5.73;;;;;;;;;;5059228;28;20257;-82
2023/06/14 03:41:47;;;;;;;6.33;5.23;;;;;;;;;;5051600;28;20205;-82
2023/06/14 03:44:16;;;;;;;6.63;5.07;;;;;;;;;;5050508;28;20240;-82
2023/06/14 03:46:43;;;;;;;5.40;4.90;;;;;;;;;;5057802;28;20289;-82
2023/06/14 03:49:10;;;;;;;10.10;5.50;;;;;;;;;;5060955;28;20241;-82
2023/06/14 03:51:37;;;;;;;6.73;5.67;;;;;;;;;;5059620;28;20210;-82
2023/06/14 03:54:06;;;;;;;8.67;4.83;;;;;;;;;;5050496;28;20283;-82
2023/06/14 03:56:33;;;;;;;7.47;5.13;;;;;;;;;;5067437;28;20205;-82
2023/06/14 03:59:00;;;;;;;7.37;5.13;;;;;;;;;;5050569;28;20237;-81
2023/06/14 04:01:29;;;;;;;6.47;5.23;;;;;;;;;;5057812;28;20686;-81
2023/06/14 04:03:57;;;;;;;6.43;4.90;;;;;;;;;;5054081;28;20289;-81
2023/06/14 04:06:24;;;;;;;7.07;5.53;;;;;;;;;;5052031;28;20212;-81
2023/06/14 04:08:53;;;;;;;6.00;5.40;;;;;;;;;;5065183;28;20221;-81
2023/06/14 04:11:21;;;;;;;5.93;4.97;;;;;;;;;;5058890;28;20618;-81
2023/06/14 04:13:48;;;;;;;8.87;4.80;;;;;;;;;;5050045;28;20230;-81
2023/06/14 04:16:15;;;;;;;6.43;4.87;;;;;;;;;;5050818;28;20214;-81
2023/06/14 04:18:42;;;;;;;7.73;5.50;;;;;;;;;;5041217;28;20232;-81
2023/06/14 04:21:09;;;;;;;7.40;5.13;;;;;;;;;;5042687;28;20210;-81
2023/06/14 04:23:37;;;;;;;7.03;4.87;;;;;;;;;;5055239;28;20676;-82
2023/06/14 04:26:05;;;;;;;5.50;4.97;;;;;;;;;;5060625;28;20251;-81
2023/06/14 04:28:37;;;;;;;5.73;4.90;;;;;;;;;;5072677;28;20240;-82
2023/06/14 04:31:04;;;;;;;5.47;5.07;;;;;;;;;;5053058;28;20237;-82
2023/06/14 04:33:31;;;;;;;7.80;5.20;;;;;;;;;;5062335;28;20210;-81
2023/06/14 04:35:59;;;;;;;5.70;5.10;;;;;;;;;;5059791;28;20313;-81
2023/06/14 04:38:28;;;;;;;6.17;5.57;;;;;;;;;;5066401;28;20743;-89
2023/06/14 04:40:56;;;;;;;9.03;5.60;;;;;;;;;;5068718;28;20319;-83
2023/06/14 04:43:25;;;;;;;9.03;6.23;;;;;;;;;;5055154;28;20216;-83
2023/06/14 04:45:56;;;;;;;8.00;5.90;;;;;;;;;;5053992;28;20280;-83
2023/06/14 04:48:23;;;;;;;6.87;6.13;;;;;;;;;;5054094;28;20226;-82
2023/06/14 04:50:52;;;;;;;12.13;6.07;;;;;;;;;;5058102;28;21012;-82
2023/06/14 04:53:21;;;;;;;7.03;5.50;;;;;;;;;;5057591;28;20210;-83
2023/06/14 04:55:50;;;;;;;8.13;5.73;;;;;;;;;;5053927;28;20222;-82
2023/06/14 04:58:17;;;;;;;8.13;5.00;;;;;;;;;;5053892;28;20698;-82
2023/06/14 05:00:44;;;;;;;6.13;5.33;;;;;;;;;;5050636;28;20222;-82
2023/06/14 05:03:13;;;;;;;6.93;5.77;;;;;;;;;;5054184;28;20210;-81
2023/06/14 05:05:41;;;;;;;6.30;5.57;;;;;;;;;;5056184;28;20316;-81
2023/06/14 05:08:08;;;;;;;8.23;5.23;;;;;;;;;;5062898;28;20244;-85
2023/06/14 05:10:36;;;;;;;6.20;5.60;;;;;;;;;;5052306;28;20253;-82
2023/06/14 05:13:03;;;;;;;6.97;4.83;;;;;;;;;;5059834;28;20205;-80
2023/06/14 05:15:30;;;;;;;6.67;4.77;;;;;;;;;;5055281;28;20230;-80
2023/06/14 05:17:57;;;;;;;9.80;5.20;;;;;;;;;;5053625;28;20210;-82
2023/06/14 05:20:26;;;;;;;7.17;5.13;;;;;;;;;;5053093;28;20242;-82
2023/06/14 05:22:54;;;;;;;5.53;4.47;;;;;;;;;;5053601;28;20217;-82
2023/06/14 05:25:21;;;;;;;7.13;4.63;;;;;;;;;;5053309;28;20599;-82
2023/06/14 05:27:48;;;;;;;5.83;4.70;;;;;;;;;;5057244;28;20236;-82
2023/06/14 05:30:15;;;;;;;5.93;4.50;;;;;;;;;;5057337;28;20230;-78
2023/06/14 05:32:42;;;;;;;5.53;4.90;;;;;;;;;;5052926;28;20213;-80
2023/06/14 05:35:10;;;;;;;5.33;4.63;;;;;;;;;;5060181;28;20240;-82
2023/06/14 05:37:38;;;;;;;6.13;3.83;;;;;;;;;;5069830;28;20279;-82
2023/06/14 05:40:06;;;;;;;6.03;4.47;;;;;;;;;;5052996;28;20250;-81
2023/06/14 05:42:33;;;;;;;5.10;4.50;;;;;;;;;;5053054;28;20210;-86
2023/06/14 05:45:00;;;;;;;6.87;4.43;;;;;;;;;;5058050;28;20217;-83
2023/06/14 05:47:28;;;;;;;4.67;3.83;;;;;;;;;;5056060;28;20217;-81
2023/06/14 05:49:55;;;;;;;4.30;3.90;;;;;;;;;;5052932;28;20621;-81
2023/06/14 05:52:22;;;;;;;4.47;4.03;;;;;;;;;;5055439;28;20233;-82
2023/06/14 05:54:50;;;;;;;4.60;3.50;;;;;;;;;;5040208;28;20238;-82
2023/06/14 05:57:18;;;;;;;3.73;3.43;;;;;;;;;;5049599;28;20214;-82
2023/06/14 05:59:45;;;;;;;5.60;3.93;;;;;;;;;;5051419;28;20276;-82
2023/06/14 06:02:12;;;;;;;3.50;3.20;;;;;;;;;;5052465;28;20206;-81
2023/06/14 06:04:39;;;;;;;9.07;5.30;;;;;;;;;;5059960;28;20613;-81
2023/06/14 06:07:06;;;;;;;5.93;3.47;;;;;;;;;;5052889;28;20664;-81
2023/06/14 06:09:34;;;;;;;4.50;3.63;;;;;;;;;;5052184;28;20726;-82
2023/06/14 06:12:02;;;;;;;5.77;3.80;;;;;;;;;;5058006;28;20553;-82
2023/06/14 06:14:29;;;;;;;4.00;3.57;;;;;;;;;;5054805;28;20233;-82
2023/06/14 06:16:56;;;;;;;11.40;4.87;;;;;;;;;;5057508;28;20212;-82
2023/06/14 06:19:24;;;;;;;8.13;3.83;;;;;;;;;;5052915;28;20257;-82
2023/06/14 06:21:51;;;;;;;5.07;3.23;;;;;;;;;;5050183;28;20210;-82
2023/06/14 06:24:18;;;;;;;3.70;3.37;;;;;;;;;;5031551;28;20738;-81
2023/06/14 06:26:45;;;;;;;3.63;3.33;;;;;;;;;;5051213;28;20218;-82
2023/06/14 06:29:14;;;;;;;5.90;3.53;;;;;;;;;;5051599;28;20240;-81
2023/06/14 06:31:41;;;;;;;6.47;3.90;;;;;;;;;;5051729;28;20275;-85
2023/06/14 06:34:08;;;;;;;3.80;3.40;;;;;;;;;;5051190;28;20233;-79
2023/06/14 06:36:35;;;;;;;4.38;3.35;;;;;;;;;;5051932;28;20214;-80
2023/06/14 06:39:08;;;;;;;6.00;3.67;;;;;;;;;;5050849;28;21064;-80
2023/06/14 06:41:37;;;;;;;4.05;3.30;;;;;;;;;;5051678;28;20216;-81
2023/06/14 06:44:04;;;;;;;8.45;3.70;;;;;;;;;;5050986;28;20258;-81
2023/06/14 06:46:33;;;;;;;8.20;3.30;;;;;;;;;;5051825;28;20236;-83
2023/06/14 06:49:00;;;;;;;4.45;3.15;;;;;;;;;;5045066;28;20295;-80
2023/06/14 06:51:28;;;;;;;6.68;3.65;;;;;;;;;;5042854;28;20209;-80
2023/06/14 06:53:55;;;;;;;4.28;3.38;;;;;;;;;;5047024;28;20211;-79
2023/06/14 06:56:23;;;;;;;6.88;3.22;;;;;;;;;;5039844;28;20226;-79
2023/06/14 06:58:50;;;;;;;4.13;3.40;;;;;;;;;;5050313;28;20229;-79
2023/06/14 07:01:18;;;;;;;5.63;3.10;;;;;;;;;;5051353;28;20206;-80
2023/06/14 07:03:47;;;;;;;2.70;2.47;;;;;;;;;;5050661;28;20210;-81
2023/06/14 07:06:14;;;;;;;3.97;3.13;;;;;;;;;;5044670;28;20587;-82
2023/06/14 07:08:41;;;;;;;3.55;2.97;;;;;;;;;;5040895;28;20239;-82
2023/06/14 07:11:08;;;;;;;3.05;2.70;;;;;;;;;;5051123;28;20691;-82
2023/06/14 07:13:35;;;;;;;5.55;2.80;;;;;;;;;;5039528;28;20221;-82
2023/06/14 07:16:04;;;;;;;3.20;2.90;;;;;;;;;;5052909;28;20234;-81
2023/06/14 07:18:31;;;;;;;3.15;2.85;;;;;;;;;;5050679;28;20276;-82
2023/06/14 07:21:00;;;;;;;3.67;3.08;;;;;;;;;;5049673;28;20261;-82
2023/06/14 07:23:27;;;;;;;2.78;2.50;;;;;;;;;;5049951;28;20202;-84
2023/06/14 07:25:54;;;;;;;4.20;2.63;;;;;;;;;;5054587;28;20233;-81
2023/06/14 07:28:21;;;;;;;4.88;2.78;;;;;;;;;;5050028;28;20210;-79
2023/06/14 07:30:48;;;;;;;3.00;2.70;;;;;;;;;;5049709;28;20234;-81
2023/06/14 07:33:15;;;;;;;4.03;3.47;;;;;;;;;;5050079;28;20206;-81
2023/06/14 07:35:43;;;;;;;2.67;2.47;;;;;;;;;;5062906;28;20232;-81
2023/06/14 07:38:11;;;;;;;7.68;2.42;;;;;;;;;;5050436;28;20214;-82
2023/06/14 07:40:38;;;;;;;2.65;2.45;;;;;;;;;;5039353;28;20653;-81
2023/06/14 07:43:05;;;;;;;3.13;2.70;;;;;;;;;;5034748;28;20240;-81
2023/06/14 07:45:32;;;;;;;2.67;2.40;;;;;;;;;;5053683;28;20225;-81
2023/06/14 07:47:59;;;;;;;4.20;2.53;;;;;;;;;;5050096;28;20217;-81
2023/06/14 07:50:26;;;;;;;2.90;2.40;;;;;;;;;;5049371;28;20229;-81
2023/06/14 07:52:53;;;;;;;2.75;2.28;;;;;;;;;;5049266;28;20220;-81
2023/06/14 07:55:22;;;;;;;3.17;2.47;;;;;;;;;;5049358;28;20233;-83
2023/06/14 07:57:49;;;;;;;2.63;2.20;;;;;;;;;;5043684;28;20217;-78
2023/06/14 08:00:18;;;;;;;4.65;2.38;;;;;;;;;;5056007;28;20743;-80
2023/06/14 08:02:45;;;;;;;3.88;2.40;;;;;;;;;;5061988;28;20213;-80
2023/06/14 08:05:12;;;;;;;3.22;2.50;;;;;;;;;;5056534;28;20218;-79
2023/06/14 08:07:39;;;;;;;2.63;2.20;;;;;;;;;;5061479;28;20217;-80
2023/06/14 08:10:07;;;;;;;3.60;2.22;;;;;;;;;;5056215;28;20232;-79
2023/06/14 08:12:35;;;;;;;3.20;2.10;;;;;;;;;;5056235;28;20241;-80
2023/06/14 08:15:02;;;;;;;2.65;2.20;;;;;;;;;;5056074;28;20266;-80
2023/06/14 08:17:30;;;;;;;4.25;2.33;;;;;;;;;;5056233;28;20581;-80
2023/06/14 08:19:57;;;;;;;4.43;3.38;;;;;;;;;;5047944;28;20229;-80
2023/06/14 08:22:25;;;;;;;3.75;2.40;;;;;;;;;;5056646;28;20205;-80
2023/06/14 08:24:54;;;;;;;3.92;2.50;;;;;;;;;;5055952;28;20679;-81
2023/06/14 08:27:21;;;;;;;7.00;2.85;;;;;;;;;;5056282;28;20241;-80
2023/06/14 08:29:49;;;;;;;5.80;2.08;;;;;;;;;;5066823;28;20247;-80
2023/06/14 08:32:16;;;;;;;3.42;2.10;;;;;;;;;;5062115;28;20252;-81
2023/06/14 08:34:44;;;;;;;2.53;1.98;;;;;;;;;;5056046;28;20240;-80
2023/06/14 08:37:11;;;;;;;2.95;2.17;;;;;;;;;;5065081;28;20220;-80
2023/06/14 08:39:38;;;;;;;4.65;1.90;;;;;;;;;;5056098;28;20241;-81
2023/06/14 08:42:07;;;;;;;4.18;2.20;;;;;;;;;;5063343;28;20214;-80
2023/06/14 08:44:34;;;;;;;2.10;1.90;;;;;;;;;;5056025;28;20292;-80
2023/06/14 08:47:03;;;;;;;2.25;2.05;;;;;;;;;;5063129;28;20214;-80
2023/06/14 08:49:31;;;;;;;4.13;1.60;;;;;;;;;;5055765;28;20312;-78
2023/06/14 08:51:59;;;;;;;3.63;1.80;;;;;;;;;;5053107;28;20210;-80
2023/06/14 08:54:29;;;;;;;2.20;1.63;;;;;;;;;;5055763;28;20226;-80
2023/06/14 08:56:57;;;;;;;3.60;1.90;;;;;;;;;;5052251;28;20305;-81
2023/06/14 08:59:26;;;;;;;1.88;1.77;;;;;;;;;;5044152;28;20273;-78
2023/06/14 09:01:54;;;;;;;1.77;1.55;;;;;;;;;;5055396;28;20210;-78
2023/06/14 09:04:24;;;;;;;1.63;1.52;;;;;;;;;;5055178;28;20821;-78
2023/06/14 09:06:52;;;;;;;1.95;1.50;;;;;;;;;;5072136;28;20596;-78
2023/06/14 09:09:19;;;;;;;3.40;1.90;;;;;;;;;;5059506;28;20233;-79
2023/06/14 09:11:47;;;;;;;1.85;1.75;;;;;;;;;;5044664;28;20297;-79
2023/06/14 09:14:14;;;;;;;2.05;1.83;;;;;;;;;;5051993;28;20241;-78
2023/06/14 09:16:41;;;;;;;1.95;1.73;;;;;;;;;;5061012;28;20225;-78
2023/06/14 09:19:09;;;;;;;1.75;1.65;;;;;;;;;;5052656;28;20584;-79
2023/06/14 09:21:37;;;;;;;1.90;1.70;;;;;;;;;;5052813;28;20214;-81
2023/06/14 09:24:05;;;;;;;1.50;1.40;;;;;;;;;;5051813;28;20240;-79
2023/06/14 09:26:33;;;;;;;1.63;1.52;;;;;;;;;;5056231;28;20206;-79
2023/06/14 09:29:00;;;;;;;2.10;1.70;;;;;;;;;;5062175;28;20225;-80
2023/06/14 09:31:31;;;;;;;4.25;1.80;;;;;;;;;;5057322;28;20683;-79
2023/06/14 09:33:58;;;;;;;1.73;1.40;;;;;;;;;;5043350;28;20237;-79
2023/06/14 09:36:26;;;;;;;1.48;1.38;;;;;;;;;;5052966;28;20240;-79
2023/06/14 09:38:55;;;;;;;2.15;1.52;;;;;;;;;;5053221;28;20265;-79
2023/06/14 09:41:22;;;;;;;2.45;1.88;;;;;;;;;;5053033;28;20288;-79
2023/06/14 09:43:49;;;;;;;2.95;1.55;;;;;;;;;;5051272;28;20206;-79
2023/06/14 09:46:16;;;;;;;1.67;1.58;;;;;;;;;;5044117;28;20194;-79
2023/06/14 09:48:43;;;;;;;1.60;1.50;;;;;;;;;;5053874;28;20322;-79
2023/06/14 09:51:11;;;;;;;2.10;1.73;;;;;;;;;;5052461;28;20205;-79
2023/06/14 09:53:39;;;;;;;2.13;1.75;;;;;;;;;;5051555;28;20206;-79
2023/06/14 09:56:07;;;;;;;1.70;1.58;;;;;;;;;;5036223;28;20264;-79
2023/06/14 09:58:36;;;;;;;2.25;1.55;;;;;;;;;;5053383;28;20241;-79
2023/06/14 10:01:05;;;;;;;1.85;1.70;;;;;;;;;;5051613;28;20234;-79
2023/06/14 10:03:32;;;;;;;1.33;1.33;;;;;;;;;;5036308;28;20210;-79
2023/06/14 10:06:01;;;;;;;2.55;1.90;;;;;;;;;;5051409;28;20218;-80
2023/06/14 10:08:29;;;;;;;1.65;1.55;;;;;;;;;;5051886;28;20217;-79
2023/06/14 10:10:57;;;;;;;2.03;1.67;;;;;;;;;;5051154;28;20706;-79
2023/06/14 10:13:27;;;;;;;2.42;1.60;;;;;;;;;;5051965;28;20206;-79
2023/06/14 10:15:56;;;;;;;1.67;1.58;;;;;;;;;;5051208;28;20736;-79
2023/06/14 10:18:27;;;;;;;2.55;1.70;;;;;;;;;;5059693;28;20276;-78
2023/06/14 10:20:59;;;;;;;3.63;1.65;;;;;;;;;;5050800;28;20248;-79
2023/06/14 10:23:27;;;;;;;1.40;1.30;;;;;;;;;;5051721;28;20209;-79
2023/06/14 10:25:57;;;;;;;1.90;1.75;;;;;;;;;;5059300;28;20630;-79
2023/06/14 10:28:26;;;;;;;3.30;1.50;;;;;;;;;;5051611;28;20269;-79
2023/06/14 10:31:08;;;;;;;3.45;1.95;;;;;;;;;;5059447;28;20229;-79
2023/06/14 10:33:36;;;;;;;1.52;1.42;;;;;;;;;;5049367;28;20205;-79
2023/06/14 10:36:10;;;;;;;2.50;2.00;;;;;;;;;;5050714;28;20228;-81
2023/06/14 10:38:38;;;;;;;2.08;1.85;;;;;;;;;;5051394;28;20260;-79
2023/06/14 10:41:05;;;;;;;2.15;1.70;;;;;;;;;;5050675;28;20257;-79
2023/06/14 10:43:34;;;;;;;5.35;1.85;;;;;;;;;;5051594;28;20624;-80
2023/06/14 10:46:17;;;;;;;3.40;1.60;;;;;;;;;;5050648;28;20225;-79
2023/06/14 10:48:44;;;;;;;2.45;1.77;;;;;;;;;;5055903;28;20665;-79
2023/06/14 10:51:19;;;;;;;2.28;1.80;;;;;;;;;;5051414;28;20202;-79
2023/06/14 10:53:47;;;;;;;1.92;1.60;;;;;;;;;;5050242;28;20240;-79
2023/06/14 10:56:26;;;;;;;3.17;2.20;;;;;;;;;;5051266;28;20229;-78
2023/06/14 10:58:56;;;;;;;2.00;1.85;;;;;;;;;;5058149;28;20233;-79
2023/06/14 11:01:25;;;;;;;2.40;2.20;;;;;;;;;;5050974;28;20240;-79
2023/06/14 11:03:53;;;;;;;2.60;2.00;;;;;;;;;;5041894;28;20255;-79
2023/06/14 11:06:23;;;;;;;2.13;1.92;;;;;;;;;;5049228;28;20195;-78
2023/06/14 11:09:09;;;;;;;2.45;2.25;;;;;;;;;;5045302;28;20253;-79
2023/06/14 11:11:36;;;;;;;2.20;2.00;;;;;;;;;;5051041;28;20206;-79
2023/06/14 11:14:05;;;;;;;1.92;1.67;;;;;;;;;;5049930;28;20232;-79
2023/06/14 11:16:33;;;;;;;2.13;2.03;;;;;;;;;;5052467;28;20631;-79
2023/06/14 11:19:03;;;;;;;3.00;1.90;;;;;;;;;;5048721;28;20281;-79
2023/06/14 11:21:31;;;;;;;2.42;2.13;;;;;;;;;;5045874;28;20289;-79
2023/06/14 11:23:58;;;;;;;3.00;1.98;;;;;;;;;;5052977;28;20234;-79
2023/06/14 11:26:29;;;;;;;2.00;1.80;;;;;;;;;;5036906;28;20574;-79
2023/06/14 11:28:59;;;;;;;2.42;1.90;;;;;;;;;;5051188;28;20225;-79
2023/06/14 11:31:29;;;;;;;2.85;2.00;;;;;;;;;;5059190;28;20239;-79
2023/06/14 11:33:56;;;;;;;4.20;2.30;;;;;;;;;;5050843;28;20210;-79
2023/06/14 11:36:23;;;;;;;3.03;2.30;;;;;;;;;;5065000;28;20860;-79
2023/06/14 11:38:51;;;;;;;3.20;2.47;;;;;;;;;;5050101;28;20232;-79
2023/06/14 11:41:18;;;;;;;3.85;2.17;;;;;;;;;;5050780;28;20677;-79
2023/06/14 11:43:45;;;;;;;2.28;2.03;;;;;;;;;;5049459;28;20209;-79
2023/06/14 11:46:16;;;;;;;2.10;1.70;;;;;;;;;;5050429;28;20202;-79
2023/06/14 11:48:45;;;;;;;2.00;1.83;;;;;;;;;;5049425;28;20221;-79
2023/06/14 11:51:12;;;;;;;2.45;2.25;;;;;;;;;;5050399;28;20202;-79
2023/06/14 11:53:39;;;;;;;2.10;1.90;;;;;;;;;;5049457;28;20210;-79
2023/06/14 11:56:07;;;;;;;1.80;1.70;;;;;;;;;;5050541;28;20225;-78
2023/06/14 11:58:34;;;;;;;4.13;1.95;;;;;;;;;;5049909;28;20249;-79
2023/06/14 12:01:01;;;;;;;2.30;2.10;;;;;;;;;;5057960;28;20725;-79
2023/06/14 12:03:29;;;;;;;2.63;2.20;;;;;;;;;;5050014;28;20206;-78
2023/06/14 12:06:10;;;;;;;2.20;2.00;;;;;;;;;;5049777;28;20225;-79
2023/06/14 12:08:40;;;;;;;2.90;2.08;;;;;;;;;;5045749;28;20229;-79
2023/06/14 12:11:08;;;;;;;3.50;2.22;;;;;;;;;;5049724;28;20239;-79
2023/06/14 12:13:35;;;;;;;1.90;1.80;;;;;;;;;;5050078;28;20229;-79
2023/06/14 12:16:03;;;;;;;2.50;1.88;;;;;;;;;;5049736;28;20233;-79
2023/06/14 12:18:35;;;;;;;2.33;2.10;;;;;;;;;;5052314;28;20749;-80
2023/06/14 12:21:03;;;;;;;3.58;1.85;;;;;;;;;;5049562;28;20655;-80
2023/06/14 12:23:41;;;;;;;2.97;1.98;;;;;;;;;;5049322;28;20733;-79
2023/06/14 12:26:08;;;;;;;1.92;1.83;;;;;;;;;;5058104;28;20233;-80
2023/06/14 12:28:35;;;;;;;4.22;2.13;;;;;;;;;;5050055;28;20253;-79
2023/06/14 12:31:03;;;;;;;3.90;2.10;;;;;;;;;;5049468;28;20233;-80
2023/06/14 12:33:30;;;;;;;3.22;2.63;;;;;;;;;;5049326;28;20675;-79
2023/06/14 12:35:57;;;;;;;2.17;1.90;;;;;;;;;;5049130;28;20230;-80
2023/06/14 12:38:25;;;;;;;3.78;1.95;;;;;;;;;;5050110;28;20248;-79
2023/06/14 12:40:53;;;;;;;3.40;2.00;;;;;;;;;;5049736;28;20368;-79
2023/06/14 12:43:20;;;;;;;1.80;1.70;;;;;;;;;;5054592;28;20202;-79
2023/06/14 12:45:47;;;;;;;4.25;2.30;;;;;;;;;;5056226;28;20233;-79
2023/06/14 12:48:15;;;;;;;4.88;1.83;;;;;;;;;;5053548;28;20198;-79
2023/06/14 12:50:42;;;;;;;3.83;2.00;;;;;;;;;;5055888;28;20628;-79
2023/06/14 12:53:09;;;;;;;3.33;2.30;;;;;;;;;;5056207;28;20198;-79
2023/06/14 12:55:36;;;;;;;3.70;2.45;;;;;;;;;;5064836;28;20233;-80
2023/06/14 12:58:04;;;;;;;2.30;2.10;;;;;;;;;;5054652;28;20230;-79
2023/06/14 13:00:31;;;;;;;2.40;2.03;;;;;;;;;;5055275;28;20221;-80
2023/06/14 13:02:58;;;;;;;2.95;2.17;;;;;;;;;;5046131;28;20222;-79
2023/06/14 13:05:26;;;;;;;2.08;1.90;;;;;;;;;;5039223;28;20226;-79
2023/06/14 13:07:53;;;;;;;4.65;1.90;;;;;;;;;;5047920;28;20202;-79
2023/06/14 13:10:20;;;;;;;2.20;2.00;;;;;;;;;;5056950;28;20234;-79
2023/06/14 13:12:47;;;;;;;4.10;2.20;;;;;;;;;;5055679;28;20209;-80
2023/06/14 13:15:15;;;;;;;5.25;1.98;;;;;;;;;;5048094;28;20229;-80
2023/06/14 13:17:43;;;;;;;2.13;2.03;;;;;;;;;;5057223;28;20249;-80
2023/06/14 13:20:11;;;;;;;3.03;2.00;;;;;;;;;;5052404;28;20253;-80
2023/06/14 13:22:39;;;;;;;4.55;2.15;;;;;;;;;;5054410;28;20210;-81
2023/06/14 13:25:07;;;;;;;2.28;1.95;;;;;;;;;;5052536;28;20234;-80
2023/06/14 13:27:34;;;;;;;3.63;2.15;;;;;;;;;;5058592;28;20225;-80
2023/06/14 13:30:01;;;;;;;2.10;1.90;;;;;;;;;;5052220;28;20237;-80
2023/06/14 13:32:30;;;;;;;2.17;1.98;;;;;;;;;;5053902;28;20216;-80
2023/06/14 13:34:57;;;;;;;2.47;1.88;;;;;;;;;;5060046;28;20234;-80
2023/06/14 13:37:24;;;;;;;2.42;1.73;;;;;;;;;;5053060;28;20301;-80
2023/06/14 13:39:51;;;;;;;3.75;2.00;;;;;;;;;;5052379;28;20237;-80
2023/06/14 13:42:18;;;;;;;4.15;1.73;;;;;;;;;;5052269;28;20210;-80
2023/06/14 13:44:45;;;;;;;2.20;2.10;;;;;;;;;;5051450;28;20226;-80
2023/06/14 13:47:12;;;;;;;7.68;2.25;;;;;;;;;;5052522;28;20194;-80
2023/06/14 13:49:40;;;;;;;13.50;2.97;;;;;;;;;;5052222;28;20244;-80
2023/06/14 13:52:08;;;;;;;3.10;2.15;;;;;;;;;;5060077;28;20213;-80
2023/06/14 13:54:35;;;;;;;2.20;2.00;;;;;;;;;;5059563;28;20616;-80
2023/06/14 13:57:02;;;;;;;2.10;1.90;;;;;;;;;;5053373;28;20221;-80
2023/06/14 13:59:31;;;;;;;2.58;1.77;;;;;;;;;;5058174;28;20998;-80
2023/06/14 14:01:58;;;;;;;3.20;2.15;;;;;;;;;;5052685;28;20214;-80
2023/06/14 14:04:25;;;;;;;2.80;2.13;;;;;;;;;;5052412;28;20316;-80
2023/06/14 14:06:53;;;;;;;5.05;2.00;;;;;;;;;;5036610;28;20203;-80
2023/06/14 14:09:20;;;;;;;2.65;1.83;;;;;;;;;;5036467;28;20241;-80
2023/06/14 14:11:48;;;;;;;2.55;1.95;;;;;;;;;;5062893;28;20205;-80
2023/06/14 14:14:15;;;;;;;5.03;2.10;;;;;;;;;;5043491;28;20264;-79
2023/06/14 14:16:42;;;;;;;2.17;2.00;;;;;;;;;;5044945;28;20230;-79
2023/06/14 14:19:09;;;;;;;4.35;2.20;;;;;;;;;;5063122;28;20260;-78
2023/06/14 14:21:37;;;;;;;3.25;1.98;;;;;;;;;;5057979;28;20205;-79
2023/06/14 14:24:06;;;;;;;3.95;2.08;;;;;;;;;;5052055;28;20236;-79
2023/06/14 14:26:33;;;;;;;4.13;2.10;;;;;;;;;;5058199;28;20206;-78
2023/06/14 14:29:02;;;;;;;2.35;2.13;;;;;;;;;;5053451;28;20295;-79
2023/06/14 14:31:29;;;;;;;2.70;2.13;;;;;;;;;;5052023;28;20201;-78
2023/06/14 14:33:56;;;;;;;2.10;1.90;;;;;;;;;;5068934;28;20198;-78
2023/06/14 14:36:23;;;;;;;3.90;2.08;;;;;;;;;;5059933;28;20202;-78
2023/06/14 14:38:51;;;;;;;1.90;1.80;;;;;;;;;;5060000;28;20291;-78
2023/06/14 14:41:20;;;;;;;5.95;2.20;;;;;;;;;;5056440;28;20205;-79
2023/06/14 14:43:47;;;;;;;2.83;1.67;;;;;;;;;;5052511;28;20206;-78
2023/06/14 14:46:16;;;;;;;5.93;2.33;;;;;;;;;;5052281;28;20206;-79
2023/06/14 14:48:43;;;;;;;2.45;2.25;;;;;;;;;;5052039;28;20229;-79